Time;durP1;ratioP1;P1;durP2;ratioP2;P2;SDS_P1;SDS_P2;PMS_P1;PMS_P2;Temp;Humidity;BMP_temperature;BMP_pressure;BME280_temperature;BME280_humidity;BME280_pressure;Samples;Min_cycle;Max_cycle;Signal;HPM_P1;HPM_P2
2021/09/27 00:00:45;;;;;;;;;11.00;9.67;;;;;21.02;66.46;100974.13;2074753;28;47264;-51
2021/09/27 00:01:47;;;;;;;;;9.50;8.75;;;;;21.02;66.54;100975.00;2068234;28;46966;-52
2021/09/27 00:02:48;;;;;;;;;9.25;9.25;;;;;21.02;66.72;100980.38;2074048;28;47511;-53
2021/09/27 00:03:48;;;;;;;;;9.00;9.00;;;;;21.02;66.37;100976.81;2057525;28;47795;-51
2021/09/27 00:04:49;;;;;;;;;11.67;10.00;;;;;21.01;66.91;100975.97;2066060;28;46344;-52
2021/09/27 00:05:50;;;;;;;;;8.67;8.67;;;;;21.01;66.73;100975.09;2074316;28;45357;-52
2021/09/27 00:06:50;;;;;;;;;10.33;10.33;;;;;21.00;66.85;100971.53;2074088;28;47463;-51
2021/09/27 00:07:50;;;;;;;;;9.00;8.33;;;;;21.00;66.31;100976.06;2073562;28;47146;-52
2021/09/27 00:08:51;;;;;;;;;8.33;7.67;;;;;20.99;66.89;100969.78;2074652;28;48340;-49
2021/09/27 00:09:51;;;;;;;;;10.00;9.67;;;;;20.98;66.48;100972.59;2073785;28;48034;-51
2021/09/27 00:11:00;;;;;;;;;9.67;7.67;;;;;20.97;66.94;100971.72;2074740;28;45774;-51
2021/09/27 00:12:06;;;;;;;;;12.50;11.00;;;;;20.96;66.88;100969.09;2074552;28;48331;-48
2021/09/27 00:13:07;;;;;;;;;10.25;10.00;;;;;20.96;66.72;100980.78;2074432;28;47346;-51
2021/09/27 00:14:08;;;;;;;;;9.25;8.75;;;;;20.96;66.90;100977.19;2074657;28;47506;-51
2021/09/27 00:15:16;;;;;;;;;12.00;12.00;;;;;20.96;66.50;100979.88;2074605;28;45591;-53
2021/09/27 00:16:17;;;;;;;;;12.25;12.25;;;;;20.96;66.91;100972.69;2073687;28;48378;-51
2021/09/27 00:17:17;;;;;;;;;10.50;10.50;;;;;20.96;66.59;100969.09;2074514;28;47309;-53
2021/09/27 00:18:19;;;;;;;;;9.33;9.33;;;;;20.96;66.69;100979.88;2073929;28;47359;-52
2021/09/27 00:19:19;;;;;;;;;9.00;9.00;;;;;20.96;66.72;100975.38;2069508;28;48268;-53
2021/09/27 00:20:20;;;;;;;;;10.67;9.33;;;;;20.97;66.58;100970.84;2074010;28;47126;-52
2021/09/27 00:21:27;;;;;;;;;9.00;9.00;;;;;20.96;67.06;100967.28;2072811;28;47321;-49
2021/09/27 00:22:27;;;;;;;;;8.50;8.50;;;;;20.96;66.50;100975.38;2073870;28;47459;-52
2021/09/27 00:23:31;;;;;;;;;9.00;8.00;;;;;20.98;66.75;100970.75;2065048;28;46789;-50
2021/09/27 00:24:32;;;;;;;;;8.75;8.75;;;;;20.99;67.04;100971.63;2073800;28;48331;-51
2021/09/27 00:25:32;;;;;;;;;8.33;8.33;;;;;21.00;66.89;100973.34;2070545;28;47283;-51
2021/09/27 00:26:33;;;;;;;;;12.00;9.67;;;;;21.00;66.41;100968.81;2073399;28;46215;-53
2021/09/27 00:27:34;;;;;;;;;8.00;8.00;;;;;21.01;66.82;100967.88;2073130;28;48210;-52
2021/09/27 00:28:34;;;;;;;;;7.00;7.00;;;;;21.02;66.60;100966.03;2074202;28;46789;-48
2021/09/27 00:29:35;;;;;;;;;9.33;9.33;;;;;21.02;66.83;100969.59;2074032;28;48340;-52
2021/09/27 00:30:36;;;;;;;;;8.00;8.00;;;;;21.04;66.69;100964.09;2074520;28;47089;-52
2021/09/27 00:31:37;;;;;;;;;8.00;8.00;;;;;21.04;66.25;100964.97;2074316;28;48129;-56
2021/09/27 00:32:38;;;;;;;;;7.33;7.33;;;;;21.05;66.77;100963.13;2074629;28;46670;-49
2021/09/27 00:33:39;;;;;;;;;7.00;7.00;;;;;21.05;66.41;100964.00;2073233;28;45319;-50
2021/09/27 00:34:39;;;;;;;;;10.67;10.33;;;;;21.05;66.94;100966.69;2073755;28;48040;-51
2021/09/27 00:35:40;;;;;;;;;8.67;8.67;;;;;21.06;66.24;100959.47;2073757;28;45097;-51
2021/09/27 00:36:41;;;;;;;;;8.00;8.00;;;;;21.06;66.46;100960.34;2073801;28;48195;-50
2021/09/27 00:37:41;;;;;;;;;7.00;7.00;;;;;21.07;66.71;100955.81;2074281;28;46264;-51
2021/09/27 00:38:43;;;;;;;;;7.00;7.00;;;;;21.06;66.62;100954.94;2073397;28;47077;-52
2021/09/27 00:39:43;;;;;;;;;6.75;6.75;;;;;21.07;66.61;100953.13;2073684;28;46828;-49
2021/09/27 00:40:48;;;;;;;;;8.67;8.67;;;;;21.07;66.70;100961.22;2074787;28;45305;-52
2021/09/27 00:41:49;;;;;;;;;10.00;9.50;;;;;21.07;66.38;100959.38;2074407;28;48202;-51
2021/09/27 00:42:49;;;;;;;;;10.33;10.00;;;;;21.08;66.86;100968.34;2074210;28;48003;-51
2021/09/27 00:43:51;;;;;;;;;9.00;8.33;;;;;21.08;66.63;100965.63;2074285;28;48423;-49
2021/09/27 00:44:51;;;;;;;;;9.50;8.75;;;;;21.07;66.18;100964.78;2073843;28;48457;-51
2021/09/27 00:46:00;;;;;;;;;12.33;10.67;;;;;21.08;66.53;100971.03;2074510;28;47147;-52
2021/09/27 00:47:01;;;;;;;;;8.50;7.75;;;;;21.08;66.73;100974.59;2073586;28;48361;-48
2021/09/27 00:48:02;;;;;;;;;7.33;7.33;;;;;21.07;66.35;100970.16;2073649;28;47363;-50
2021/09/27 00:49:04;;;;;;;;;10.75;7.00;;;;;21.06;66.80;100957.66;2075089;28;46309;-51
2021/09/27 00:50:07;;;;;;;;;8.50;8.50;;;;;21.06;66.64;100970.28;2073688;28;48182;-51
2021/09/27 00:51:12;;;;;;;;;10.75;9.50;;;;;21.05;66.31;100963.13;2072819;28;47197;-48
2021/09/27 00:52:12;;;;;;;;;11.00;11.00;;;;;21.04;66.50;100972.19;2071596;28;47363;-52
2021/09/27 00:53:27;;;;;;;;;11.00;8.67;;;;;21.02;66.79;100966.91;2074056;28;47415;-52
2021/09/27 00:54:32;;;;;;;;;9.25;9.25;;;;;21.01;66.91;100961.59;2073803;28;45448;-52
2021/09/27 00:55:33;;;;;;;;;10.25;10.25;;;;;21.00;66.80;100959.88;2069337;28;48162;-51
2021/09/27 00:56:40;;;;;;;;;10.33;10.33;;;;;21.00;66.26;100967.97;2074511;28;45112;-49
2021/09/27 00:57:40;;;;;;;;;12.25;11.50;;;;;20.99;66.18;100967.09;2074223;28;47163;-53
2021/09/27 00:58:44;;;;;;;;;10.33;10.33;;;;;20.97;66.26;100963.63;2074373;28;48177;-51
2021/09/27 00:59:49;;;;;;;;;10.00;9.50;;;;;20.97;66.38;100957.38;2073517;28;48211;-48
2021/09/27 01:00:50;;;;;;;;;8.75;8.75;;;;;20.95;66.31;100959.25;2073753;28;48559;-53
2021/09/27 01:01:51;;;;;;;;;10.50;10.50;;;;;20.94;66.75;100958.41;2073861;28;46206;-50
2021/09/27 01:02:52;;;;;;;;;10.25;9.75;;;;;20.94;66.37;100954.81;2073862;28;46507;-53
2021/09/27 01:03:54;;;;;;;;;8.67;7.67;;;;;20.94;66.42;100949.44;2072585;28;46970;-52
2021/09/27 01:04:54;;;;;;;;;8.25;8.25;;;;;20.94;66.80;100954.81;2073573;28;47246;-55
2021/09/27 01:06:09;;;;;;;;;9.33;8.00;;;;;20.93;67.03;100950.41;2073824;28;48278;-51
2021/09/27 01:07:24;;;;;;;;;10.25;10.25;;;;;20.92;66.99;100952.22;2072526;28;48882;-50
2021/09/27 01:08:37;;;;;;;;;8.50;7.75;;;;;20.93;66.91;100953.97;2072144;28;47053;-52
2021/09/27 01:09:46;;;;;;;;;11.00;9.50;;;;;20.92;66.65;100948.66;2074322;28;46156;-51
2021/09/27 01:11:06;;;;;;;;;10.75;9.00;;;;;20.92;66.58;100944.13;2074015;28;46642;-52
2021/09/27 01:12:25;;;;;;;;;10.25;9.75;;;;;20.91;66.40;100941.53;2073599;28;47467;-51
2021/09/27 01:13:44;;;;;;;;;10.00;9.50;;;;;20.90;66.59;100943.38;2072737;28;47321;-52
2021/09/27 01:15:03;;;;;;;;;9.50;9.25;;;;;20.89;66.44;100935.38;2072089;28;46369;-52
2021/09/27 01:16:13;;;;;;;;;11.50;11.50;;;;;20.88;66.62;100939.91;2075206;28;45380;-50
2021/09/27 01:17:32;;;;;;;;;8.25;8.25;;;;;20.88;67.05;100933.63;2075357;28;48125;-50
2021/09/27 01:19:01;;;;;;;;;8.75;7.25;;;;;20.86;67.10;100941.81;2075885;28;47273;-52
2021/09/27 01:20:38;;;;;;;;;10.25;10.25;;;;;20.84;67.04;100936.53;2074260;28;47808;-53
2021/09/27 01:21:55;;;;;;;;;9.75;9.75;;;;;20.84;66.71;100938.34;2075038;28;45446;-52
2021/09/27 01:23:14;;;;;;;;;8.00;8.00;;;;;20.84;66.65;100938.34;2075324;28;47571;-50
2021/09/27 01:24:52;;;;;;;;;10.75;10.75;;;;;20.82;67.05;100938.44;2075422;28;47530;-49
2021/09/27 01:26:37;;;;;;;;;8.75;8.75;;;;;20.80;66.61;100934.09;2074969;28;45328;-53
2021/09/27 01:28:15;;;;;;;;;9.25;8.25;;;;;20.79;66.64;100933.22;2057931;28;47329;-50
2021/09/27 01:29:40;;;;;;;;;6.50;6.50;;;;;20.76;66.71;100928.03;2057946;28;46769;-52
2021/09/27 01:30:50;;;;;;;;;7.25;7.25;;;;;20.76;67.02;100929.84;2059911;28;47436;-51
2021/09/27 01:32:17;;;;;;;;;8.50;8.25;;;;;20.75;67.13;100923.59;2057591;28;45427;-49
2021/09/27 01:33:28;;;;;;;;;7.50;7.25;;;;;20.75;67.19;100922.72;2061906;28;47159;-50
2021/09/27 01:34:41;;;;;;;;;7.50;6.50;;;;;20.74;66.99;100926.38;2075609;28;48408;-51
2021/09/27 01:36:18;;;;;;;;;8.00;8.00;;;;;20.74;67.29;100923.69;2074204;28;47504;-50
2021/09/27 01:37:32;;;;;;;;;8.00;8.00;;;;;20.73;66.68;100921.97;2069660;28;48291;-53
2021/09/27 01:38:57;;;;;;;;;8.25;8.25;;;;;20.72;66.99;100926.47;2075232;28;48224;-50
2021/09/27 01:40:24;;;;;;;;;12.00;9.20;;;;;20.71;67.46;100926.53;2076838;28;46152;-52
2021/09/27 01:41:41;;;;;;;;;7.75;7.75;;;;;20.71;67.12;100927.44;2072634;28;47312;-50
2021/09/27 01:42:56;;;;;;;;;9.00;9.00;;;;;20.70;66.79;100924.81;2074895;28;47310;-47
2021/09/27 01:44:22;;;;;;;;;10.25;9.25;;;;;20.70;66.85;100925.69;2075519;28;47141;-52
2021/09/27 01:45:28;;;;;;;;;9.00;8.00;;;;;20.69;67.42;100926.66;2070008;28;47257;-53
2021/09/27 01:46:34;;;;;;;;;9.50;9.25;;;;;20.68;66.88;100933.00;2075476;28;47234;-50
2021/09/27 01:47:50;;;;;;;;;10.00;9.75;;;;;20.67;67.25;100923.19;2074875;28;47320;-51
2021/09/27 01:49:02;;;;;;;;;8.25;8.25;;;;;20.67;67.42;100923.19;2074892;28;48187;-52
2021/09/27 01:50:33;;;;;;;;;8.00;8.00;;;;;20.67;67.33;100927.69;2079823;28;47253;-51
2021/09/27 01:51:40;;;;;;;;;10.75;9.50;;;;;20.67;67.27;100925.00;2070788;28;47344;-51
2021/09/27 01:52:52;;;;;;;;;12.00;9.33;;;;;20.66;67.43;100920.56;2074373;28;47207;-52
2021/09/27 01:54:05;;;;;;;;;9.00;9.00;;;;;20.65;67.03;100919.72;2073346;28;48300;-52
2021/09/27 01:55:52;;;;;;;;;8.25;8.25;;;;;20.65;66.99;100918.84;2067081;28;47954;-50
2021/09/27 01:57:05;;;;;;;;;10.25;10.25;;;;;20.65;67.38;100918.84;2053093;28;47017;-50
2021/09/27 01:58:16;;;;;;;;;12.50;10.50;;;;;20.64;67.33;100911.72;2060451;28;47047;-51
2021/09/27 01:59:39;;;;;;;;;12.50;12.50;;;;;20.65;67.05;100914.31;2067954;28;47546;-50
2021/09/27 02:00:46;;;;;;;;;9.75;9.75;;;;;20.64;67.01;100912.59;2074868;28;45207;-51
2021/09/27 02:02:07;;;;;;;;;10.25;10.25;;;;;20.64;67.21;100911.72;2075458;28;47026;-49
2021/09/27 02:03:29;;;;;;;;;7.75;7.75;;;;;20.65;67.33;100916.16;2080374;28;46531;-53
2021/09/27 02:04:53;;;;;;;;;11.25;10.25;;;;;20.64;67.45;100907.19;2067510;28;48482;-51
2021/09/27 02:06:08;;;;;;;;;11.50;10.00;;;;;20.64;67.03;100903.63;2067349;28;47540;-52
2021/09/27 02:07:12;;;;;;;;;9.00;9.00;;;;;20.65;66.99;100898.13;2073475;28;46962;-50
2021/09/27 02:08:27;;;;;;;;;10.25;10.25;;;;;20.65;66.99;100899.97;2071898;28;48464;-48
2021/09/27 02:09:36;;;;;;;;;13.00;12.00;;;;;20.64;66.82;100899.09;2072177;28;45898;-52
2021/09/27 02:11:05;;;;;;;;;13.25;13.25;;;;;20.65;67.42;100899.97;2074891;28;47321;-53
2021/09/27 02:12:23;;;;;;;;;9.25;9.25;;;;;20.65;67.17;100895.44;2062209;28;48251;-53
2021/09/27 02:13:32;;;;;;;;;10.75;9.00;;;;;20.65;67.03;100900.84;2065968;28;47514;-50
2021/09/27 02:14:48;;;;;;;;;11.25;11.00;;;;;20.66;67.44;100896.31;2075167;28;45715;-53
2021/09/27 02:16:09;;;;;;;;;8.50;8.50;;;;;20.66;67.45;100899.88;2067160;28;47235;-51
2021/09/27 02:17:31;;;;;;;;;9.25;9.25;;;;;20.66;66.93;100893.59;2074913;28;45722;-51
2021/09/27 02:18:37;;;;;;;;;11.00;10.75;;;;;20.66;67.35;100896.31;2083112;28;47449;-52
2021/09/27 02:19:43;;;;;;;;;11.00;8.75;;;;;20.66;67.31;100896.31;2081998;28;45254;-52
2021/09/27 02:20:58;;;;;;;;;12.50;11.25;;;;;20.66;67.52;100897.16;2075576;28;47341;-51
2021/09/27 02:22:12;;;;;;;;;11.75;11.25;;;;;20.66;67.33;100896.31;2074033;28;47294;-53
2021/09/27 02:23:22;;;;;;;;;10.25;9.00;;;;;20.66;67.14;100901.69;2074508;28;47036;-51
2021/09/27 02:24:31;;;;;;;;;9.00;9.00;;;;;20.65;67.35;100895.44;2072276;28;46227;-52
2021/09/27 02:25:35;;;;;;;;;11.75;11.75;;;;;20.66;67.49;100893.59;2074607;28;47307;-50
2021/09/27 02:26:36;;;;;;;;;9.25;8.75;;;;;20.66;67.05;100893.59;2066665;28;47355;-52
2021/09/27 02:27:37;;;;;;;;;11.33;9.67;;;;;20.66;67.17;100894.47;2066390;28;45780;-52
2021/09/27 02:28:37;;;;;;;;;10.00;8.25;;;;;20.66;67.17;100896.31;2074771;28;47878;-52
2021/09/27 02:29:38;;;;;;;;;11.33;11.33;;;;;20.65;67.23;100892.75;2082870;28;47188;-52
2021/09/27 02:30:46;;;;;;;;;12.00;11.00;;;;;20.65;67.36;100890.03;2075245;28;47224;-52
2021/09/27 02:31:59;;;;;;;;;12.25;11.75;;;;;20.65;67.37;100889.19;2075362;28;47862;-52
2021/09/27 02:33:32;;;;;;;;;10.00;10.00;;;;;20.65;67.37;100892.75;2074563;28;48091;-49
2021/09/27 02:34:44;;;;;;;;;13.00;12.00;;;;;20.66;66.92;100894.47;2065867;28;47551;-51
2021/09/27 02:36:03;;;;;;;;;11.25;9.50;;;;;20.65;67.43;100903.53;2069789;28;47085;-51
2021/09/27 02:37:25;;;;;;;;;10.50;10.50;;;;;20.66;67.05;100899.88;2066765;28;48265;-51
2021/09/27 02:38:51;;;;;;;;;9.50;9.50;;;;;20.66;67.28;100899.88;2068602;28;48362;-52
2021/09/27 02:39:59;;;;;;;;;10.50;10.25;;;;;20.67;67.03;100896.22;2055399;28;47910;-52
2021/09/27 02:41:12;;;;;;;;;11.00;11.00;;;;;20.68;67.53;100903.34;2074399;28;47524;-52
2021/09/27 02:42:29;;;;;;;;;9.00;9.00;;;;;20.68;67.25;100897.94;2074175;28;47496;-52
2021/09/27 02:43:30;;;;;;;;;10.75;10.75;;;;;20.68;67.00;100895.25;2068470;28;47498;-51
2021/09/27 02:44:30;;;;;;;;;9.67;9.67;;;;;20.69;67.42;100890.72;2075223;28;47540;-52
2021/09/27 02:45:31;;;;;;;;;9.67;9.67;;;;;20.70;67.60;100892.44;2075706;28;47047;-52
2021/09/27 02:46:41;;;;;;;;;12.00;9.67;;;;;20.70;67.30;100882.53;2074973;28;48193;-52
2021/09/27 02:48:10;;;;;;;;;11.00;11.00;;;;;20.70;67.02;100887.91;2074327;28;48807;-51
2021/09/27 02:49:13;;;;;;;;;10.25;9.75;;;;;20.71;67.30;100894.19;2074660;28;48594;-51
2021/09/27 02:50:19;;;;;;;;;11.75;11.75;;;;;20.71;67.41;100891.47;2081404;28;47504;-52
2021/09/27 02:51:20;;;;;;;;;10.75;10.75;;;;;20.71;67.50;100891.47;2075025;28;47284;-51
2021/09/27 02:52:21;;;;;;;;;8.25;8.25;;;;;20.70;67.36;100896.00;2074619;28;48215;-52
2021/09/27 02:53:22;;;;;;;;;10.00;10.00;;;;;20.71;66.91;100878.00;2074604;28;46451;-50
2021/09/27 02:54:37;;;;;;;;;13.50;12.25;;;;;20.70;67.32;100887.91;2075089;28;47319;-52
2021/09/27 02:55:46;;;;;;;;;8.75;8.75;;;;;20.71;67.32;100888.78;2074931;28;48168;-53
2021/09/27 02:56:59;;;;;;;;;9.25;9.25;;;;;20.71;67.04;100886.09;2075222;28;45495;-53
2021/09/27 02:58:08;;;;;;;;;11.00;11.00;;;;;20.72;67.17;100887.84;2075010;28;47284;-52
2021/09/27 02:59:25;;;;;;;;;12.00;12.00;;;;;20.71;67.02;100895.09;2075026;28;47298;-51
2021/09/27 03:00:46;;;;;;;;;9.50;9.50;;;;;20.71;67.16;100900.47;2075284;28;46120;-53
2021/09/27 03:02:10;;;;;;;;;8.50;8.50;;;;;20.71;67.32;100899.56;2074465;28;47091;-51
2021/09/27 03:03:35;;;;;;;;;10.25;9.50;;;;;20.70;66.78;100896.00;2067264;28;46239;-53
2021/09/27 03:04:36;;;;;;;;;13.00;10.00;;;;;20.69;66.96;100894.28;2067188;28;47141;-52
2021/09/27 03:05:45;;;;;;;;;12.33;11.67;;;;;20.69;67.03;100893.41;2072336;28;47487;-52
2021/09/27 03:07:13;;;;;;;;;10.00;10.00;;;;;20.68;67.19;100891.69;2075137;28;47553;-53
2021/09/27 03:08:29;;;;;;;;;11.00;11.00;;;;;20.68;66.70;100897.06;2073375;28;48409;-51
2021/09/27 03:09:47;;;;;;;;;9.00;9.00;;;;;20.68;67.31;100895.25;2071677;28;48791;-52
2021/09/27 03:10:55;;;;;;;;;11.00;11.00;;;;;20.68;66.70;100891.69;2075222;28;48039;-52
2021/09/27 03:12:14;;;;;;;;;8.25;8.25;;;;;20.68;67.21;100894.38;2074625;28;47341;-49
2021/09/27 03:13:57;;;;;;;;;11.50;9.25;;;;;20.68;67.31;100894.38;2074373;28;48043;-50
2021/09/27 03:15:03;;;;;;;;;11.50;9.75;;;;;20.68;67.17;100895.25;2058609;28;48774;-51
2021/09/27 03:16:06;;;;;;;;;11.00;11.00;;;;;20.68;67.28;100888.97;2075260;28;47257;-49
2021/09/27 03:17:19;;;;;;;;;10.50;10.50;;;;;20.68;66.84;100887.16;2081622;28;47275;-52
2021/09/27 03:18:48;;;;;;;;;12.75;12.00;;;;;20.67;66.60;100890.81;2066923;28;48388;-51
2021/09/27 03:20:26;;;;;;;;;10.00;10.00;;;;;20.68;66.83;100891.69;2071544;28;48147;-51
2021/09/27 03:21:30;;;;;;;;;9.00;8.75;;;;;20.66;67.22;100891.78;2073144;28;46993;-49
2021/09/27 03:22:42;;;;;;;;;12.00;9.50;;;;;20.66;67.13;100891.78;2073646;28;47336;-52
2021/09/27 03:24:17;;;;;;;;;8.00;8.00;;;;;20.66;66.75;100888.22;2073980;28;48420;-48
2021/09/27 03:25:59;;;;;;;;;11.00;11.00;;;;;20.65;66.70;100887.34;2074924;28;47279;-51
2021/09/27 03:27:21;;;;;;;;;10.25;9.25;;;;;20.63;67.00;100865.00;2073024;28;46993;-53
2021/09/27 03:28:38;;;;;;;;;9.25;9.25;;;;;20.63;66.63;100874.94;2074619;28;47437;-50
2021/09/27 03:30:02;;;;;;;;;9.00;9.00;;;;;20.64;66.67;100879.34;2075091;28;47537;-52
2021/09/27 03:31:24;;;;;;;;;12.25;9.75;;;;;20.64;66.75;100876.66;2074182;28;47895;-51
2021/09/27 03:32:37;;;;;;;;;11.50;10.00;;;;;20.64;67.21;100882.06;2074589;28;48350;-51
2021/09/27 03:34:02;;;;;;;;;10.50;10.50;;;;;20.63;66.62;100875.78;2074907;28;47466;-49
2021/09/27 03:35:09;;;;;;;;;13.50;11.50;;;;;20.63;67.01;100875.78;2069816;28;48140;-51
2021/09/27 03:36:31;;;;;;;;;11.75;11.00;;;;;20.62;67.22;100882.16;2071660;28;48381;-50
2021/09/27 03:37:35;;;;;;;;;9.75;8.75;;;;;20.62;66.65;100878.59;2074279;28;47159;-52
2021/09/27 03:38:47;;;;;;;;;10.25;10.25;;;;;20.61;67.24;100885.81;2074693;28;47338;-51
2021/09/27 03:40:02;;;;;;;;;9.25;9.25;;;;;20.61;67.16;100885.81;2075273;28;47150;-49
2021/09/27 03:41:27;;;;;;;;;10.75;10.75;;;;;20.61;66.65;100876.84;2071907;28;48198;-51
2021/09/27 03:42:56;;;;;;;;;12.25;11.25;;;;;20.61;66.98;100879.56;2074716;28;48262;-48
2021/09/27 03:44:11;;;;;;;;;8.00;8.00;;;;;20.59;66.54;100879.66;2074462;28;47437;-52
2021/09/27 03:45:19;;;;;;;;;10.67;10.33;;;;;20.59;67.11;100887.75;2074703;28;47010;-50
2021/09/27 03:46:48;;;;;;;;;9.50;8.75;;;;;20.58;67.23;100891.38;2074534;28;47949;-49
2021/09/27 03:48:03;;;;;;;;;9.25;9.25;;;;;20.57;66.68;100893.19;2072423;28;47255;-50
2021/09/27 03:49:07;;;;;;;;;10.25;9.25;;;;;20.56;66.82;100893.28;2074035;28;47277;-49
2021/09/27 03:50:17;;;;;;;;;10.50;10.50;;;;;20.54;66.77;100885.28;2077904;28;48088;-51
2021/09/27 03:51:28;;;;;;;;;9.25;9.25;;;;;20.55;67.30;100892.44;2072461;28;47597;-48
2021/09/27 03:52:49;;;;;;;;;8.25;8.25;;;;;20.55;66.92;100892.44;2074868;28;46519;-51
2021/09/27 03:53:57;;;;;;;;;11.00;10.25;;;;;20.56;67.23;100901.38;2074631;28;48255;-53
2021/09/27 03:55:07;;;;;;;;;12.00;12.00;;;;;20.56;66.63;100901.38;2082530;28;47268;-53
2021/09/27 03:56:20;;;;;;;;;8.75;8.50;;;;;20.57;66.96;100905.81;2081556;28;47400;-52
2021/09/27 03:57:38;;;;;;;;;8.25;8.25;;;;;20.57;66.52;100895.88;2073206;28;48052;-52
2021/09/27 03:58:49;;;;;;;;;9.50;9.50;;;;;20.57;67.12;100892.31;2073863;28;45389;-49
2021/09/27 03:59:57;;;;;;;;;10.75;10.75;;;;;20.58;66.93;100888.66;2074277;28;47165;-52
2021/09/27 04:01:04;;;;;;;;;11.00;9.50;;;;;20.58;66.92;100888.66;2074370;28;47288;-51
2021/09/27 04:02:23;;;;;;;;;11.50;9.75;;;;;20.59;66.88;100889.56;2074141;28;48091;-48
2021/09/27 04:04:07;;;;;;;;;11.00;9.50;;;;;20.58;67.09;100894.06;2074078;28;47131;-51
2021/09/27 04:05:20;;;;;;;;;9.00;8.50;;;;;20.58;66.54;100896.75;2057314;28;47572;-51
2021/09/27 04:06:36;;;;;;;;;11.25;10.50;;;;;20.58;66.77;100896.75;2056308;28;48431;-50
2021/09/27 04:07:54;;;;;;;;;8.75;8.75;;;;;20.59;66.44;100897.66;2069277;28;46774;-52
2021/09/27 04:09:01;;;;;;;;;9.00;9.00;;;;;20.59;66.54;100901.22;2066061;28;48195;-50
2021/09/27 04:10:44;;;;;;;;;7.75;7.75;;;;;20.60;66.86;100902.09;2072739;28;47900;-52
2021/09/27 04:12:19;;;;;;;;;8.75;8.75;;;;;20.61;66.94;100896.59;2074042;28;48428;-52
2021/09/27 04:13:31;;;;;;;;;8.25;7.50;;;;;20.62;66.65;100886.69;2072520;28;47573;-48
2021/09/27 04:15:07;;;;;;;;;8.50;8.50;;;;;20.62;66.95;100890.25;2070540;28;48310;-48
2021/09/27 04:16:49;;;;;;;;;9.50;9.50;;;;;20.63;66.50;100885.72;2074855;28;48531;-48
2021/09/27 04:18:09;;;;;;;;;10.00;9.00;;;;;20.63;66.58;100888.41;2072416;28;47310;-47
2021/09/27 04:19:30;;;;;;;;;13.50;10.50;;;;;20.63;66.09;100880.31;2073468;28;48486;-49
2021/09/27 04:20:42;;;;;;;;;9.00;9.00;;;;;20.62;66.80;100890.25;2076767;28;48707;-50
2021/09/27 04:21:59;;;;;;;;;8.75;8.50;;;;;20.62;66.45;100895.63;2078863;28;47305;-52
2021/09/27 04:23:24;;;;;;;;;9.25;9.25;;;;;20.62;66.80;100901.03;2080975;28;48386;-49
2021/09/27 04:24:45;;;;;;;;;11.00;11.00;;;;;20.61;66.78;100901.13;2079324;28;47290;-51
2021/09/27 04:25:57;;;;;;;;;8.50;8.00;;;;;20.62;66.54;100902.84;2064059;28;47417;-49
2021/09/27 04:27:18;;;;;;;;;10.00;9.75;;;;;20.60;66.71;100897.56;2073671;28;48076;-54
2021/09/27 04:28:43;;;;;;;;;10.00;10.00;;;;;20.59;66.72;100898.53;2073981;28;47182;-51
2021/09/27 04:30:13;;;;;;;;;9.00;9.00;;;;;20.59;66.32;100898.53;2073353;28;47282;-52
2021/09/27 04:31:22;;;;;;;;;9.00;9.00;;;;;20.57;66.65;100895.03;2072495;28;48214;-51
2021/09/27 04:32:43;;;;;;;;;9.25;9.25;;;;;20.56;66.37;100890.59;2074392;28;47572;-52
2021/09/27 04:34:06;;;;;;;;;7.75;7.75;;;;;20.54;66.57;100890.69;2073477;28;46114;-52
2021/09/27 04:35:25;;;;;;;;;6.50;6.50;;;;;20.53;66.28;100877.31;2073999;28;46954;-52
2021/09/27 04:36:37;;;;;;;;;9.50;9.00;;;;;20.52;66.21;100886.34;2074229;28;48642;-50
2021/09/27 04:37:39;;;;;;;;;9.75;9.25;;;;;20.51;66.27;100882.78;2072580;28;48443;-51
2021/09/27 04:38:40;;;;;;;;;8.00;8.00;;;;;20.52;66.53;100880.97;2070223;28;45767;-52
2021/09/27 04:39:40;;;;;;;;;9.75;8.50;;;;;20.51;66.43;100877.41;2074098;28;47423;-51
2021/09/27 04:41:06;;;;;;;;;7.00;7.00;;;;;20.51;66.48;100879.22;2073725;28;45379;-52
2021/09/27 04:42:39;;;;;;;;;8.00;7.50;;;;;20.50;66.11;100877.50;2070898;28;47142;-48
2021/09/27 04:44:01;;;;;;;;;7.75;7.75;;;;;20.50;66.01;100880.19;2072698;28;47568;-51
2021/09/27 04:45:07;;;;;;;;;10.25;9.00;;;;;20.48;65.94;100877.59;2069428;28;45498;-51
2021/09/27 04:46:32;;;;;;;;;11.00;9.25;;;;;20.47;66.56;100877.69;2074178;28;46901;-54
2021/09/27 04:47:54;;;;;;;;;6.00;5.75;;;;;20.47;65.82;100880.38;2073310;28;47096;-51
2021/09/27 04:49:01;;;;;;;;;7.25;7.00;;;;;20.46;66.23;100874.13;2073862;28;48569;-51
2021/09/27 04:50:39;;;;;;;;;9.00;8.50;;;;;20.46;66.19;100876.81;2077683;28;47327;-52
2021/09/27 04:52:15;;;;;;;;;9.25;9.25;;;;;20.45;65.80;100874.19;2074054;28;48788;-52
2021/09/27 04:53:40;;;;;;;;;7.50;7.50;;;;;20.45;66.27;100874.19;2072371;28;48493;-50
2021/09/27 04:54:52;;;;;;;;;7.00;6.50;;;;;20.45;66.01;100868.81;2067881;28;48273;-50
2021/09/27 04:55:56;;;;;;;;;9.25;9.25;;;;;20.46;66.00;100873.25;2073327;28;48527;-51
2021/09/27 04:57:15;;;;;;;;;9.00;8.25;;;;;20.46;66.26;100873.25;2074818;28;48394;-51
2021/09/27 04:58:33;;;;;;;;;8.75;8.25;;;;;20.46;66.21;100862.47;2074915;28;48585;-52
2021/09/27 04:59:45;;;;;;;;;10.50;10.50;;;;;20.45;66.16;100864.28;2075206;28;47149;-53
2021/09/27 05:01:11;;;;;;;;;7.50;6.75;;;;;20.45;65.91;100864.28;2069455;28;46241;-53
2021/09/27 05:02:40;;;;;;;;;11.50;10.75;;;;;20.43;65.94;100868.91;2073956;28;45390;-49
2021/09/27 05:03:44;;;;;;;;;8.00;8.00;;;;;20.43;66.42;100868.03;2069713;28;48402;-50
2021/09/27 05:05:01;;;;;;;;;7.50;6.75;;;;;20.43;66.09;100862.63;2075115;28;47341;-51
2021/09/27 05:06:16;;;;;;;;;6.50;6.50;;;;;20.43;65.81;100866.19;2066830;28;47041;-50
2021/09/27 05:07:49;;;;;;;;;8.75;8.75;;;;;20.42;65.76;100867.16;2063303;28;47210;-52
2021/09/27 05:09:00;;;;;;;;;11.25;11.25;;;;;20.42;66.20;100861.78;2071422;28;47399;-52
2021/09/27 05:10:07;;;;;;;;;9.00;7.25;;;;;20.41;66.28;100859.13;2074033;28;46750;-51
2021/09/27 05:11:45;;;;;;;;;10.00;8.25;;;;;20.40;65.77;100855.59;2075417;28;48372;-52
2021/09/27 05:12:51;;;;;;;;;9.25;8.75;;;;;20.38;66.01;100857.50;2074470;28;48214;-51
2021/09/27 05:14:25;;;;;;;;;8.25;8.25;;;;;20.36;65.68;100851.34;2071692;28;48292;-51
2021/09/27 05:15:44;;;;;;;;;7.75;7.75;;;;;20.35;66.04;100849.59;2073550;28;47252;-51
2021/09/27 05:17:00;;;;;;;;;6.50;6.50;;;;;20.34;65.85;100853.28;2074311;28;48289;-49
2021/09/27 05:18:15;;;;;;;;;8.00;8.00;;;;;20.34;66.22;100855.09;2081613;28;48376;-52
2021/09/27 05:19:37;;;;;;;;;10.50;9.50;;;;;20.33;66.29;100847.94;2075174;28;47437;-51
2021/09/27 05:21:14;;;;;;;;;8.00;8.00;;;;;20.31;65.85;100849.88;2067656;28;47389;-53
2021/09/27 05:22:40;;;;;;;;;7.00;7.00;;;;;20.29;66.32;100852.66;2083590;28;58170;-54
2021/09/27 05:24:13;;;;;;;;;9.75;9.75;;;;;20.29;65.78;100839.19;2091245;28;47430;-49
2021/09/27 05:25:36;;;;;;;;;9.75;9.75;;;;;20.27;66.41;100833.88;2091058;28;48274;-51
2021/09/27 05:27:12;;;;;;;;;9.00;9.00;;;;;20.28;66.40;100843.69;2091662;28;47294;-51
2021/09/27 05:28:34;;;;;;;;;7.75;7.50;;;;;20.28;66.01;100845.53;2091887;28;48686;-52
2021/09/27 05:30:01;;;;;;;;;8.00;8.00;;;;;20.28;65.80;100842.84;2091929;28;47002;-52
2021/09/27 05:31:49;;;;;;;;;8.75;8.75;;;;;20.27;66.06;100843.81;2092146;28;47328;-50
2021/09/27 05:33:06;;;;;;;;;8.50;6.75;;;;;20.26;66.19;100842.06;2090244;28;47376;-52
2021/09/27 05:34:51;;;;;;;;;8.25;8.25;;;;;20.26;65.84;100825.91;2087993;28;47374;-52
2021/09/27 05:35:55;;;;;;;;;8.00;8.00;;;;;20.25;65.93;100837.63;2089195;28;45487;-49
2021/09/27 05:36:55;;;;;;;;;9.00;8.00;;;;;20.25;66.04;100845.72;2092066;28;47082;-52
2021/09/27 05:38:03;;;;;;;;;8.00;8.00;;;;;20.23;66.29;100845.81;2091677;28;47315;-53
2021/09/27 05:39:37;;;;;;;;;8.50;7.50;;;;;20.24;65.95;100838.59;2092185;28;45414;-53
2021/09/27 05:41:14;;;;;;;;;7.25;7.25;;;;;20.23;65.99;100850.34;2090945;28;47513;-48
2021/09/27 05:42:26;;;;;;;;;6.50;6.50;;;;;20.23;66.30;100853.03;2089408;28;47448;-52